createdAt,value
2019-03-19T03:01:17.557Z,30.87
2019-03-19T03:03:48.961Z,30.13
2019-03-19T03:06:20.226Z,31.23
2019-03-19T03:08:51.534Z,31.43
2019-03-19T03:11:22.685Z,31.43
2019-03-19T03:13:54.024Z,31.83
2019-03-19T03:16:25.228Z,31.43
2019-03-19T03:18:56.577Z,31.43
2019-03-19T03:21:27.890Z,32.27
2019-03-19T03:23:59.068Z,34.53
2019-03-19T03:26:30.385Z,34.07
2019-03-19T03:29:01.638Z,35.03
2019-03-19T03:31:32.965Z,32.93
2019-03-19T03:34:04.167Z,32.93
2019-03-19T03:36:35.422Z,35.47
2019-03-19T03:39:07.903Z,33.93
2019-03-19T03:41:39.270Z,35.00
2019-03-19T03:44:10.582Z,33.17
2019-03-19T03:46:41.833Z,35.17
2019-03-19T03:49:12.977Z,35.30
2019-03-19T03:51:44.257Z,39.53
2019-03-19T03:54:15.526Z,35.63
2019-03-19T03:57:00.969Z,34.87
2019-03-19T03:59:19.687Z,35.37
2019-03-19T04:01:51.004Z,35.37
2019-03-19T04:04:22.238Z,35.10
2019-03-19T04:06:53.516Z,34.50
2019-03-19T04:09:24.828Z,34.77
2019-03-19T04:11:56.005Z,34.33
2019-03-19T04:14:27.256Z,33.43
2019-03-19T04:16:59.561Z,35.77
2019-03-19T04:19:30.952Z,34.90
2019-03-19T04:22:02.310Z,33.67
2019-03-19T04:24:33.665Z,36.40
2019-03-19T04:27:15.313Z,34.97
2019-03-19T04:29:37.766Z,36.27
2019-03-19T04:32:08.908Z,35.90
2019-03-19T04:34:40.108Z,35.33
2019-03-19T04:37:11.308Z,34.23
2019-03-19T04:39:42.654Z,35.20
2019-03-19T04:42:14.025Z,37.40
2019-03-19T04:44:45.433Z,33.93
2019-03-19T04:47:16.720Z,35.30
2019-03-19T04:49:48.132Z,34.77
2019-03-19T04:52:19.277Z,35.67
2019-03-19T04:54:50.438Z,35.10
2019-03-19T04:57:26.621Z,35.30
2019-03-19T04:59:54.579Z,34.23
2019-03-19T05:02:25.893Z,35.37
2019-03-19T05:04:57.194Z,35.30
2019-03-19T05:07:29.517Z,33.60
2019-03-19T05:10:00.727Z,34.50
2019-03-19T05:12:32.672Z,35.77
2019-03-19T05:15:04.742Z,36.93
2019-03-19T05:17:36.054Z,36.63
2019-03-19T05:20:14.428Z,37.07
2019-03-19T05:22:45.677Z,38.67
2019-03-19T05:25:16.985Z,41.15
2019-03-19T05:27:48.276Z,41.37
2019-03-19T05:30:20.672Z,40.65
2019-03-19T05:32:52.134Z,39.63
2019-03-19T05:35:23.333Z,39.60
2019-03-19T05:37:54.661Z,38.92
2019-03-19T05:40:25.903Z,39.13
2019-03-19T05:42:58.728Z,40.25
2019-03-19T05:45:30.093Z,40.17
2019-03-19T05:48:01.380Z,38.25
2019-03-19T05:50:32.624Z,38.92
2019-03-19T05:53:03.888Z,38.15
2019-03-19T05:55:35.185Z,36.80
2019-03-19T05:58:06.445Z,37.80
2019-03-19T06:00:38.846Z,37.88
2019-03-19T06:03:11.384Z,38.30
2019-03-19T06:05:42.662Z,39.88
2019-03-19T06:08:13.842Z,41.50
2019-03-19T06:10:47.842Z,41.80
2019-03-19T06:13:20.118Z,44.05
2019-03-19T06:15:51.396Z,42.10
2019-03-19T06:18:22.707Z,41.53
2019-03-19T06:20:53.939Z,42.95
2019-03-19T06:23:38.510Z,42.25
2019-03-19T06:26:12.128Z,43.15
2019-03-19T06:28:43.349Z,42.88
2019-03-19T06:31:14.547Z,41.40
2019-03-19T06:33:48.292Z,41.30
2019-03-19T06:36:19.687Z,41.60
2019-03-19T06:38:50.945Z,40.25
2019-03-19T06:41:22.217Z,42.33
2019-03-19T06:43:53.385Z,41.48
2019-03-19T06:46:26.186Z,41.18
2019-03-19T06:48:58.441Z,39.27
2019-03-19T06:51:29.634Z,38.08
2019-03-19T06:54:00.901Z,35.85
2019-03-19T06:56:32.189Z,35.68
2019-03-19T06:59:03.524Z,34.15
2019-03-19T07:01:34.808Z,30.35
2019-03-19T07:04:06.119Z,26.35
2019-03-19T07:06:37.431Z,28.00
2019-03-19T07:09:09.097Z,18.48
2019-03-19T07:11:40.265Z,26.05
2019-03-19T07:14:11.559Z,24.40
2019-03-19T07:16:42.791Z,25.75
2019-03-19T07:19:15.017Z,25.37
2019-03-19T07:21:46.415Z,27.87
2019-03-19T07:24:17.614Z,24.67
2019-03-19T07:26:48.853Z,28.05
2019-03-19T07:29:20.054Z,23.67
2019-03-19T07:31:51.463Z,23.75
2019-03-19T07:34:22.691Z,17.82
2019-03-19T07:36:54.079Z,25.95
2019-03-19T07:39:25.367Z,23.27
2019-03-19T07:41:56.694Z,22.00
2019-03-19T07:44:28.684Z,23.07
2019-03-19T07:47:00.163Z,23.77
2019-03-19T07:49:31.569Z,27.22
2019-03-19T07:52:03.650Z,21.35
2019-03-19T07:54:37.139Z,21.68
2019-03-19T07:57:08.419Z,20.05
2019-03-19T07:59:40.883Z,22.32
2019-03-19T08:02:12.279Z,18.80
2019-03-19T08:04:43.425Z,22.73
2019-03-19T08:07:14.732Z,18.05
2019-03-19T08:09:47.293Z,20.30
2019-03-19T08:12:18.613Z,19.90
2019-03-19T08:14:49.876Z,19.20
2019-03-19T08:17:21.225Z,19.30
2019-03-19T08:19:53.178Z,16.37
2019-03-19T08:22:27.539Z,15.08
2019-03-19T08:24:58.693Z,18.85
2019-03-19T08:27:29.957Z,16.67
2019-03-19T08:30:01.242Z,16.10
2019-03-19T08:32:33.506Z,18.42
2019-03-19T08:35:06.077Z,15.00
2019-03-19T08:37:37.362Z,15.98
2019-03-19T08:40:13.674Z,15.88
2019-03-19T08:42:44.950Z,16.45
2019-03-19T08:45:22.437Z,15.90
2019-03-19T08:47:53.782Z,11.65
2019-03-19T08:50:25.062Z,13.72
2019-03-19T08:52:56.441Z,14.23
2019-03-19T08:55:27.697Z,14.70
2019-03-19T08:57:59.165Z,16.77
2019-03-19T09:00:30.520Z,15.40
2019-03-19T09:03:01.862Z,15.32
2019-03-19T09:05:33.076Z,16.42
2019-03-19T09:08:05.650Z,15.78
2019-03-19T09:10:36.804Z,17.32
2019-03-19T09:13:09.423Z,17.10
2019-03-19T09:15:42.479Z,17.82
2019-03-19T09:18:16.148Z,12.80
2019-03-19T09:20:47.558Z,12.63
2019-03-19T09:23:18.802Z,12.47
2019-03-19T09:25:50.024Z,17.00
2019-03-19T09:28:21.318Z,13.70
2019-03-19T09:30:54.202Z,14.83
2019-03-19T09:33:25.575Z,13.15
2019-03-19T09:35:56.818Z,13.32
2019-03-19T09:38:28.170Z,14.33
2019-03-19T09:40:59.548Z,13.53
2019-03-19T09:43:33.197Z,12.33
2019-03-19T09:46:04.533Z,12.28
2019-03-19T09:48:36.254Z,12.85
2019-03-19T09:51:07.319Z,14.93
2019-03-19T09:53:40.190Z,12.05
2019-03-19T09:56:11.497Z,14.23
2019-03-19T09:58:42.809Z,20.95
2019-03-19T10:01:14.012Z,12.93
2019-03-19T10:03:45.300Z,14.10
2019-03-19T10:06:16.477Z,9.90
2019-03-19T10:08:48.388Z,11.50
2019-03-19T10:11:19.510Z,13.43
2019-03-19T10:13:50.647Z,11.38
2019-03-19T10:16:21.887Z,8.95
2019-03-19T10:18:53.384Z,10.00
2019-03-19T10:21:24.596Z,9.23
2019-03-19T10:23:55.901Z,8.58
2019-03-19T10:26:27.109Z,8.90
2019-03-19T10:28:58.456Z,16.05
2019-03-19T10:31:29.599Z,13.60
2019-03-19T10:34:01.275Z,9.80
2019-03-19T10:36:33.535Z,8.10
2019-03-19T10:39:09.045Z,9.40
2019-03-19T10:41:40.084Z,13.10
2019-03-19T10:44:11.292Z,9.68
2019-03-19T10:46:44.219Z,11.35
2019-03-19T10:49:15.523Z,9.83
2019-03-19T10:51:48.075Z,9.45
2019-03-19T10:54:19.338Z,9.00
2019-03-19T10:56:50.663Z,10.00
2019-03-19T10:59:21.952Z,10.13
2019-03-19T11:01:53.304Z,10.38
2019-03-19T11:04:24.610Z,10.18
2019-03-19T11:06:55.882Z,12.75
2019-03-19T11:09:27.228Z,9.85
2019-03-19T11:11:58.443Z,9.13
2019-03-19T11:14:29.587Z,8.03
2019-03-19T11:17:00.693Z,8.23
2019-03-19T11:19:31.816Z,9.85
2019-03-19T11:22:03.136Z,9.23
2019-03-19T11:24:34.703Z,14.53
2019-03-19T11:27:07.099Z,47.40
2019-03-19T11:29:38.383Z,20.27
2019-03-19T11:32:09.792Z,14.47
2019-03-19T11:34:41.109Z,8.05
2019-03-19T11:37:13.509Z,9.18
2019-03-19T11:39:46.368Z,8.28
2019-03-19T11:42:18.322Z,8.00
2019-03-19T11:44:50.517Z,8.00
2019-03-19T11:47:21.682Z,9.68
2019-03-19T11:49:52.902Z,9.78
2019-03-19T11:52:24.244Z,9.58
2019-03-19T11:54:55.456Z,9.38
2019-03-19T11:57:27.635Z,9.40
2019-03-19T11:59:58.854Z,9.75
2019-03-19T12:02:30.094Z,9.95
2019-03-19T12:05:02.022Z,11.85
2019-03-19T12:07:33.144Z,9.78
2019-03-19T12:10:06.852Z,13.18
2019-03-19T12:12:38.143Z,8.68
2019-03-19T12:15:13.371Z,11.80
2019-03-19T12:17:44.831Z,18.15
2019-03-19T12:20:16.133Z,9.68
2019-03-19T12:22:47.593Z,9.00
2019-03-19T12:25:19.982Z,10.30
2019-03-19T12:27:52.085Z,12.55
2019-03-19T12:30:26.238Z,14.95
2019-03-19T12:32:57.225Z,9.53
2019-03-19T12:35:30.653Z,8.93
2019-03-19T12:38:01.454Z,9.80
2019-03-19T12:40:37.359Z,10.23
2019-03-19T12:43:06.914Z,10.60
2019-03-19T12:45:38.178Z,9.75
2019-03-19T12:48:09.948Z,10.68
2019-03-19T12:50:41.132Z,9.40
2019-03-19T12:53:12.352Z,9.90
2019-03-19T12:55:43.785Z,10.00
2019-03-19T12:58:15.053Z,9.63
2019-03-19T13:00:46.328Z,9.88
2019-03-19T13:03:17.620Z,9.13
2019-03-19T13:05:48.997Z,9.88
2019-03-19T13:08:20.549Z,13.45
2019-03-19T13:10:52.051Z,14.25
2019-03-19T13:13:23.319Z,14.95
2019-03-19T13:15:54.777Z,19.20
2019-03-19T13:18:26.073Z,21.62
2019-03-19T13:20:57.488Z,17.77
2019-03-19T13:23:31.899Z,17.25
2019-03-19T13:26:03.248Z,11.30
2019-03-19T13:28:34.659Z,17.77
2019-03-19T13:31:05.989Z,17.80
2019-03-19T13:33:37.267Z,25.37
2019-03-19T13:36:08.699Z,17.10
2019-03-19T13:38:40.067Z,17.52
2019-03-19T13:41:11.373Z,12.80
2019-03-19T13:43:42.604Z,14.80
2019-03-19T13:46:13.888Z,15.85
2019-03-19T13:48:45.176Z,22.05
2019-03-19T13:51:16.487Z,13.53
2019-03-19T13:53:47.961Z,12.58
2019-03-19T13:56:19.287Z,14.55
2019-03-19T13:58:50.575Z,14.30
2019-03-19T14:01:21.892Z,15.65
2019-03-19T14:03:53.281Z,15.88
2019-03-19T14:06:24.594Z,16.73
2019-03-19T14:08:55.970Z,17.27
2019-03-19T14:11:27.107Z,15.68
2019-03-19T14:13:58.449Z,14.75
2019-03-19T14:16:29.831Z,18.15
2019-03-19T14:19:01.055Z,21.00
2019-03-19T14:21:33.046Z,18.32
2019-03-19T14:24:04.312Z,19.27
2019-03-19T14:26:35.604Z,18.20
2019-03-19T14:29:06.957Z,16.77
2019-03-19T14:31:38.223Z,16.75
2019-03-19T14:34:09.600Z,18.37
2019-03-19T14:36:41.830Z,16.62
2019-03-19T14:39:13.398Z,17.98
2019-03-19T14:41:45.711Z,18.82
2019-03-19T14:44:17.086Z,19.02
2019-03-19T14:46:48.317Z,21.82
2019-03-19T14:49:19.567Z,24.18
2019-03-19T14:51:51.849Z,21.70
2019-03-19T14:54:23.134Z,18.90
2019-03-19T14:56:54.362Z,20.95
2019-03-19T14:59:25.651Z,17.30
2019-03-19T15:01:56.838Z,19.62
2019-03-19T15:04:28.064Z,20.90
2019-03-19T15:06:59.479Z,28.80
2019-03-19T15:09:30.673Z,23.15
2019-03-19T15:12:01.941Z,23.10
2019-03-19T15:14:33.245Z,22.15
2019-03-19T15:17:05.544Z,18.42
2019-03-19T15:19:36.890Z,17.98
2019-03-19T15:22:08.177Z,23.20
2019-03-19T15:24:39.937Z,48.63
2019-03-19T15:27:11.245Z,57.10
2019-03-19T15:29:42.594Z,44.05
2019-03-19T15:32:13.883Z,27.17
2019-03-19T15:34:45.111Z,19.57
2019-03-19T15:37:16.428Z,20.05
2019-03-19T15:39:47.656Z,21.82
2019-03-19T15:42:19.016Z,23.65
2019-03-19T15:44:50.364Z,24.00
2019-03-19T15:47:21.889Z,24.43
2019-03-19T15:49:53.213Z,19.48
2019-03-19T15:52:24.519Z,17.02
2019-03-19T15:54:55.867Z,17.65
2019-03-19T15:57:27.143Z,17.30
2019-03-19T15:59:58.481Z,16.70
2019-03-19T16:02:29.688Z,22.77
2019-03-19T16:05:01.128Z,21.95
2019-03-19T16:07:32.338Z,12.82
2019-03-19T16:10:04.362Z,13.00
2019-03-19T16:12:35.671Z,12.85
2019-03-19T16:15:15.252Z,15.35
2019-03-19T16:17:46.495Z,22.48
2019-03-19T16:20:19.112Z,44.55
2019-03-19T16:22:50.426Z,49.42
2019-03-19T16:25:22.105Z,38.75
2019-03-19T16:27:53.271Z,108.45
2019-03-19T16:30:24.543Z,60.33
2019-03-19T16:32:55.741Z,50.35
2019-03-19T16:35:27.087Z,46.28
2019-03-19T16:37:58.496Z,29.23
2019-03-19T16:40:29.716Z,17.20
2019-03-19T16:43:01.038Z,22.35
2019-03-19T16:45:32.333Z,18.45
2019-03-19T16:48:03.589Z,20.08
2019-03-19T16:50:34.946Z,20.48
2019-03-19T16:53:07.448Z,19.73
2019-03-19T16:55:38.796Z,19.70
2019-03-19T16:58:10.073Z,18.32
2019-03-19T17:00:41.341Z,19.40
2019-03-19T17:03:12.700Z,21.57
2019-03-19T17:05:44.107Z,23.27
2019-03-19T17:08:15.256Z,24.65
2019-03-19T17:10:46.500Z,23.27
2019-03-19T17:13:17.704Z,22.90
2019-03-19T17:15:49.051Z,24.52
2019-03-19T17:18:21.292Z,25.90
2019-03-19T17:20:52.917Z,25.48
2019-03-19T17:23:24.125Z,25.80
2019-03-19T17:25:55.466Z,26.23
2019-03-19T17:28:27.663Z,26.73
2019-03-19T17:30:59.072Z,23.77
2019-03-19T17:33:31.871Z,25.43
2019-03-19T17:36:03.793Z,24.25
2019-03-19T17:38:36.699Z,22.87
2019-03-19T17:41:08.160Z,24.30
2019-03-19T17:43:39.414Z,23.05
2019-03-19T17:46:10.724Z,23.15
2019-03-19T17:48:43.683Z,21.90
2019-03-19T17:51:16.178Z,20.17
2019-03-19T17:53:47.456Z,18.52
2019-03-19T17:56:21.025Z,20.48
2019-03-19T17:58:56.288Z,20.20
2019-03-19T18:01:27.572Z,20.90
2019-03-19T18:03:58.844Z,17.73
2019-03-19T18:06:31.700Z,18.57
2019-03-19T18:09:03.185Z,17.65
2019-03-19T18:11:35.086Z,18.32
2019-03-19T18:14:08.033Z,18.20
2019-03-19T18:16:39.444Z,19.45
2019-03-19T18:19:10.737Z,19.57
2019-03-19T18:21:42.039Z,18.87
2019-03-19T18:24:13.271Z,20.00
2019-03-19T18:26:44.661Z,19.90
2019-03-19T18:29:16.078Z,20.95
2019-03-19T18:31:47.711Z,20.50
2019-03-19T18:34:19.224Z,19.30
2019-03-19T18:36:50.834Z,23.25
2019-03-19T18:39:22.187Z,27.67
2019-03-19T18:41:53.509Z,31.05
2019-03-19T18:44:26.659Z,35.78
2019-03-19T18:46:59.790Z,29.95
2019-03-19T18:49:32.991Z,35.03
2019-03-19T18:52:04.322Z,33.80
2019-03-19T18:54:35.617Z,34.78
2019-03-19T18:57:06.919Z,36.05
2019-03-19T18:59:40.869Z,38.60
2019-03-19T19:02:13.107Z,38.35
2019-03-19T19:04:44.468Z,41.55
2019-03-19T19:07:15.839Z,37.25
2019-03-19T19:09:47.161Z,37.53
2019-03-19T19:12:18.278Z,42.70
2019-03-19T19:14:49.562Z,40.78
2019-03-19T19:17:22.193Z,38.00
2019-03-19T19:19:55.910Z,49.93
2019-03-19T19:22:27.215Z,48.65
2019-03-19T19:24:59.895Z,49.93
2019-03-19T19:27:31.313Z,51.95
2019-03-19T19:30:04.314Z,46.80
2019-03-19T19:32:35.602Z,46.05
2019-03-19T19:35:07.670Z,49.60
2019-03-19T19:37:39.074Z,53.98
2019-03-19T19:40:18.696Z,53.58
2019-03-19T19:42:49.968Z,59.83
2019-03-19T19:45:21.390Z,63.98
2019-03-19T19:47:52.622Z,69.32
2019-03-19T19:50:24.242Z,80.03
2019-03-19T19:52:55.817Z,79.90
2019-03-19T19:55:27.108Z,82.08
2019-03-19T19:57:59.910Z,81.20
2019-03-19T20:00:32.688Z,75.25
2019-03-19T20:03:11.731Z,66.82
2019-03-19T20:05:36.970Z,60.17
2019-03-19T20:08:08.294Z,51.53
2019-03-19T20:10:39.524Z,48.20
2019-03-19T20:13:10.761Z,40.38
2019-03-19T20:15:42.132Z,39.95
2019-03-19T20:18:16.440Z,40.65
2019-03-19T20:20:47.738Z,39.45
2019-03-19T20:23:19.284Z,37.80
2019-03-19T20:25:50.611Z,34.00
2019-03-19T20:28:22.922Z,35.08
2019-03-19T20:30:54.995Z,35.13
2019-03-19T20:33:26.303Z,31.52
2019-03-19T20:35:57.649Z,31.33
2019-03-19T20:38:28.963Z,29.70
2019-03-19T20:41:00.381Z,54.60
2019-03-19T20:43:31.931Z,34.75
2019-03-19T20:46:03.356Z,32.98
2019-03-19T20:48:36.274Z,33.55
2019-03-19T20:51:08.427Z,34.92
2019-03-19T20:53:41.364Z,30.70
2019-03-19T20:56:12.697Z,24.60
2019-03-19T20:58:44.407Z,54.00
2019-03-19T21:01:15.776Z,21.10
2019-03-19T21:03:47.395Z,21.68
2019-03-19T21:06:19.533Z,41.30
2019-03-19T21:08:51.051Z,57.08
2019-03-19T21:11:23.062Z,31.80
2019-03-19T21:13:54.259Z,22.50
2019-03-19T21:16:25.430Z,39.30
2019-03-19T21:18:57.048Z,105.85
2019-03-19T21:21:28.311Z,178.27
2019-03-19T21:23:59.632Z,139.52
2019-03-19T21:26:32.794Z,72.50
2019-03-19T21:29:05.109Z,43.02
2019-03-19T21:31:36.359Z,55.63
2019-03-19T21:34:07.703Z,23.22
2019-03-19T21:36:38.983Z,22.87
2019-03-19T21:39:10.233Z,27.13
2019-03-19T21:41:41.576Z,35.65
2019-03-19T21:44:12.811Z,62.10
2019-03-19T21:46:44.249Z,50.88
2019-03-19T21:49:15.604Z,36.58
2019-03-19T21:51:47.007Z,48.68
2019-03-19T21:54:18.643Z,41.65
2019-03-19T21:56:50.122Z,64.95
2019-03-19T21:59:21.439Z,33.15
2019-03-19T22:01:52.788Z,26.97
2019-03-19T22:04:24.060Z,25.00
2019-03-19T22:06:55.352Z,23.62
2019-03-19T22:09:26.680Z,28.98
2019-03-19T22:11:58.000Z,23.80
2019-03-19T22:14:29.327Z,22.87
2019-03-19T22:17:00.577Z,21.60
2019-03-19T22:19:32.100Z,22.15
2019-03-19T22:22:03.393Z,22.20
2019-03-19T22:24:34.655Z,22.30
2019-03-19T22:27:05.904Z,29.52
2019-03-19T22:29:37.097Z,37.10
2019-03-19T22:32:08.360Z,34.03
2019-03-19T22:34:39.585Z,25.97
2019-03-19T22:37:10.976Z,28.47
2019-03-19T22:39:42.762Z,29.48
2019-03-19T22:42:14.335Z,25.37
2019-03-19T22:44:45.691Z,44.67
2019-03-19T22:47:18.104Z,28.98
2019-03-19T22:49:49.481Z,30.65
2019-03-19T22:52:20.885Z,39.33
2019-03-19T22:54:53.280Z,39.73
2019-03-19T22:57:24.735Z,34.83
2019-03-19T22:59:56.089Z,29.55
2019-03-19T23:02:27.522Z,26.80
2019-03-19T23:04:58.968Z,24.98
2019-03-19T23:07:30.308Z,22.65
2019-03-19T23:10:01.710Z,22.30
2019-03-19T23:12:33.084Z,23.45
2019-03-19T23:15:06.861Z,25.62
2019-03-19T23:17:38.230Z,23.73
2019-03-19T23:20:12.038Z,25.43
2019-03-19T23:22:43.399Z,26.45
2019-03-19T23:25:14.880Z,26.65
2019-03-19T23:27:46.249Z,27.80
2019-03-19T23:30:21.498Z,29.70
2019-03-19T23:32:52.719Z,29.23
2019-03-19T23:35:23.995Z,27.65
2019-03-19T23:37:56.186Z,27.58
2019-03-19T23:40:27.457Z,26.25
2019-03-19T23:42:58.783Z,25.85
2019-03-19T23:45:30.041Z,29.27
2019-03-19T23:48:01.356Z,27.45
2019-03-19T23:50:33.629Z,27.10
2019-03-19T23:53:04.902Z,28.60
2019-03-19T23:55:36.114Z,29.37
2019-03-19T23:58:07.418Z,32.67
